sensor_id;sensor_type;location;lat;lon;timestamp;P1;durP1;ratioP1;P2;durP2;ratioP2
30127;SDS011;16942;53.196;6.592;2024-03-23T00:55:11;30.37;;;5.37;;
30127;SDS011;16942;53.196;6.592;2024-03-23T00:57:37;26.03;;;4.80;;
30127;SDS011;16942;53.196;6.592;2024-03-23T01:00:04;23.23;;;5.30;;
30127;SDS011;16942;53.196;6.592;2024-03-23T01:02:31;14.40;;;4.63;;
30127;SDS011;16942;53.196;6.592;2024-03-23T01:04:57;21.47;;;4.57;;
30127;SDS011;16942;53.196;6.592;2024-03-23T01:07:23;22.87;;;4.80;;
30127;SDS011;16942;53.196;6.592;2024-03-23T01:09:49;34.40;;;5.40;;
30127;SDS011;16942;53.196;6.592;2024-03-23T01:12:17;16.40;;;4.70;;
30127;SDS011;16942;53.196;6.592;2024-03-23T01:14:43;19.37;;;4.27;;
30127;SDS011;16942;53.196;6.592;2024-03-23T01:17:09;27.90;;;4.90;;
30127;SDS011;16942;53.196;6.592;2024-03-23T01:19:35;16.80;;;4.60;;
30127;SDS011;16942;53.196;6.592;2024-03-23T01:22:01;24.73;;;5.07;;
30127;SDS011;16942;53.196;6.592;2024-03-23T01:24:27;25.67;;;5.07;;
30127;SDS011;16942;53.196;6.592;2024-03-23T01:26:53;19.03;;;5.20;;
30127;SDS011;16942;53.196;6.592;2024-03-23T01:29:19;24.43;;;5.13;;
30127;SDS011;16942;53.196;6.592;2024-03-23T01:31:45;20.23;;;4.23;;
30127;SDS011;16942;53.196;6.592;2024-03-23T01:34:11;18.57;;;5.00;;
30127;SDS011;16942;53.196;6.592;2024-03-23T01:36:37;32.23;;;5.67;;
30127;SDS011;16942;53.196;6.592;2024-03-23T01:39:03;23.97;;;4.97;;
30127;SDS011;16942;53.196;6.592;2024-03-23T01:41:29;19.20;;;4.47;;
30127;SDS011;16942;53.196;6.592;2024-03-23T01:43:55;22.20;;;4.70;;
30127;SDS011;16942;53.196;6.592;2024-03-23T01:46:22;29.23;;;6.03;;
30127;SDS011;16942;53.196;6.592;2024-03-23T01:48:48;28.50;;;5.53;;
30127;SDS011;16942;53.196;6.592;2024-03-23T01:51:14;29.70;;;4.03;;
30127;SDS011;16942;53.196;6.592;2024-03-23T01:53:40;24.87;;;5.03;;
30127;SDS011;16942;53.196;6.592;2024-03-23T01:56:07;20.23;;;4.30;;
30127;SDS011;16942;53.196;6.592;2024-03-23T01:58:33;26.23;;;4.73;;
30127;SDS011;16942;53.196;6.592;2024-03-23T02:00:59;22.37;;;4.37;;
30127;SDS011;16942;53.196;6.592;2024-03-23T02:03:26;25.37;;;5.80;;
30127;SDS011;16942;53.196;6.592;2024-03-23T02:05:52;17.00;;;4.23;;
30127;SDS011;16942;53.196;6.592;2024-03-23T02:08:20;19.23;;;7.90;;
30127;SDS011;16942;53.196;6.592;2024-03-23T02:10:46;18.27;;;4.50;;
30127;SDS011;16942;53.196;6.592;2024-03-23T02:13:13;21.77;;;4.70;;
30127;SDS011;16942;53.196;6.592;2024-03-23T02:15:39;24.13;;;5.03;;
30127;SDS011;16942;53.196;6.592;2024-03-23T02:18:07;23.70;;;4.63;;
30127;SDS011;16942;53.196;6.592;2024-03-23T02:20:33;18.77;;;4.23;;
30127;SDS011;16942;53.196;6.592;2024-03-23T02:22:59;18.13;;;4.40;;
30127;SDS011;16942;53.196;6.592;2024-03-23T02:25:25;15.63;;;4.10;;
30127;SDS011;16942;53.196;6.592;2024-03-23T02:27:51;18.67;;;4.07;;
30127;SDS011;16942;53.196;6.592;2024-03-23T02:30:19;28.47;;;4.60;;
30127;SDS011;16942;53.196;6.592;2024-03-23T02:32:45;19.57;;;4.60;;
30127;SDS011;16942;53.196;6.592;2024-03-23T02:35:11;26.73;;;5.23;;
30127;SDS011;16942;53.196;6.592;2024-03-23T02:37:37;24.87;;;4.70;;
30127;SDS011;16942;53.196;6.592;2024-03-23T02:40:03;18.67;;;5.23;;
30127;SDS011;16942;53.196;6.592;2024-03-23T02:42:30;24.87;;;4.73;;
30127;SDS011;16942;53.196;6.592;2024-03-23T02:44:56;22.53;;;4.07;;
30127;SDS011;16942;53.196;6.592;2024-03-23T02:47:22;22.00;;;3.93;;
30127;SDS011;16942;53.196;6.592;2024-03-23T02:49:48;20.60;;;4.53;;
30127;SDS011;16942;53.196;6.592;2024-03-23T02:52:14;25.50;;;6.07;;
30127;SDS011;16942;53.196;6.592;2024-03-23T02:54:40;16.13;;;3.87;;
30127;SDS011;16942;53.196;6.592;2024-03-23T02:57:09;14.80;;;4.27;;
30127;SDS011;16942;53.196;6.592;2024-03-23T02:59:35;28.43;;;4.40;;
30127;SDS011;16942;53.196;6.592;2024-03-23T03:02:01;20.87;;;4.13;;
30127;SDS011;16942;53.196;6.592;2024-03-23T03:04:29;16.47;;;3.60;;
30127;SDS011;16942;53.196;6.592;2024-03-23T03:06:55;20.10;;;4.27;;
30127;SDS011;16942;53.196;6.592;2024-03-23T03:09:21;18.50;;;3.50;;
30127;SDS011;16942;53.196;6.592;2024-03-23T03:11:47;23.43;;;4.33;;
30127;SDS011;16942;53.196;6.592;2024-03-23T03:14:13;17.80;;;3.80;;
30127;SDS011;16942;53.196;6.592;2024-03-23T03:16:39;22.33;;;4.13;;
30127;SDS011;16942;53.196;6.592;2024-03-23T03:19:05;19.40;;;3.70;;
30127;SDS011;16942;53.196;6.592;2024-03-23T03:21:31;18.17;;;4.23;;
30127;SDS011;16942;53.196;6.592;2024-03-23T03:23:58;26.60;;;3.60;;
30127;SDS011;16942;53.196;6.592;2024-03-23T03:26:23;21.33;;;4.27;;
30127;SDS011;16942;53.196;6.592;2024-03-23T03:28:50;22.87;;;4.23;;
30127;SDS011;16942;53.196;6.592;2024-03-23T03:31:16;9.37;;;3.37;;
30127;SDS011;16942;53.196;6.592;2024-03-23T03:33:42;11.70;;;3.60;;
30127;SDS011;16942;53.196;6.592;2024-03-23T03:36:08;15.07;;;3.83;;
30127;SDS011;16942;53.196;6.592;2024-03-23T03:38:34;19.07;;;3.97;;
30127;SDS011;16942;53.196;6.592;2024-03-23T03:41:01;15.07;;;4.00;;
30127;SDS011;16942;53.196;6.592;2024-03-23T03:43:27;12.03;;;3.50;;
30127;SDS011;16942;53.196;6.592;2024-03-23T03:45:56;12.63;;;3.20;;
30127;SDS011;16942;53.196;6.592;2024-03-23T03:48:22;15.30;;;3.57;;
30127;SDS011;16942;53.196;6.592;2024-03-23T03:50:49;13.97;;;3.53;;
30127;SDS011;16942;53.196;6.592;2024-03-23T03:53:15;14.47;;;3.33;;
30127;SDS011;16942;53.196;6.592;2024-03-23T03:55:41;17.87;;;3.90;;
30127;SDS011;16942;53.196;6.592;2024-03-23T03:58:07;13.17;;;3.07;;
30127;SDS011;16942;53.196;6.592;2024-03-23T04:00:33;10.90;;;3.03;;
30127;SDS011;16942;53.196;6.592;2024-03-23T04:02:59;13.37;;;3.43;;
30127;SDS011;16942;53.196;6.592;2024-03-23T04:05:25;17.07;;;4.50;;
30127;SDS011;16942;53.196;6.592;2024-03-23T04:07:51;14.40;;;3.47;;
30127;SDS011;16942;53.196;6.592;2024-03-23T04:10:17;14.17;;;2.93;;
30127;SDS011;16942;53.196;6.592;2024-03-23T04:12:43;10.37;;;3.30;;
30127;SDS011;16942;53.196;6.592;2024-03-23T04:15:10;14.37;;;3.13;;
30127;SDS011;16942;53.196;6.592;2024-03-23T04:17:36;23.07;;;3.83;;
30127;SDS011;16942;53.196;6.592;2024-03-23T04:20:02;12.70;;;3.10;;
30127;SDS011;16942;53.196;6.592;2024-03-23T04:22:34;15.80;;;3.40;;
30127;SDS011;16942;53.196;6.592;2024-03-23T04:25:00;23.33;;;4.30;;
30127;SDS011;16942;53.196;6.592;2024-03-23T04:27:34;18.83;;;4.10;;
30127;SDS011;16942;53.196;6.592;2024-03-23T04:30:00;15.87;;;3.90;;
30127;SDS011;16942;53.196;6.592;2024-03-23T04:32:28;17.60;;;3.37;;
30127;SDS011;16942;53.196;6.592;2024-03-23T04:34:54;14.67;;;3.47;;
30127;SDS011;16942;53.196;6.592;2024-03-23T04:37:21;13.20;;;3.37;;
30127;SDS011;16942;53.196;6.592;2024-03-23T04:39:47;10.60;;;2.63;;
30127;SDS011;16942;53.196;6.592;2024-03-23T04:42:14;19.10;;;3.67;;
30127;SDS011;16942;53.196;6.592;2024-03-23T04:44:40;19.97;;;3.10;;
30127;SDS011;16942;53.196;6.592;2024-03-23T04:47:06;17.57;;;4.20;;
30127;SDS011;16942;53.196;6.592;2024-03-23T04:49:32;12.07;;;3.27;;
30127;SDS011;16942;53.196;6.592;2024-03-23T04:51:59;17.60;;;3.00;;
30127;SDS011;16942;53.196;6.592;2024-03-23T04:54:25;18.20;;;3.00;;
30127;SDS011;16942;53.196;6.592;2024-03-23T04:56:51;19.30;;;3.90;;
30127;SDS011;16942;53.196;6.592;2024-03-23T04:59:17;15.40;;;3.37;;
30127;SDS011;16942;53.196;6.592;2024-03-23T05:01:43;22.83;;;3.27;;
30127;SDS011;16942;53.196;6.592;2024-03-23T05:04:09;19.30;;;3.70;;
30127;SDS011;16942;53.196;6.592;2024-03-23T05:06:35;15.97;;;3.20;;
30127;SDS011;16942;53.196;6.592;2024-03-23T05:09:01;15.43;;;2.93;;
30127;SDS011;16942;53.196;6.592;2024-03-23T05:11:31;16.67;;;2.87;;
30127;SDS011;16942;53.196;6.592;2024-03-23T05:13:57;19.17;;;7.23;;
30127;SDS011;16942;53.196;6.592;2024-03-23T05:16:23;15.93;;;2.80;;
30127;SDS011;16942;53.196;6.592;2024-03-23T05:18:49;11.70;;;3.33;;
30127;SDS011;16942;53.196;6.592;2024-03-23T05:21:15;21.23;;;3.30;;
30127;SDS011;16942;53.196;6.592;2024-03-23T05:23:41;15.83;;;2.87;;
30127;SDS011;16942;53.196;6.592;2024-03-23T05:26:08;14.37;;;3.17;;
30127;SDS011;16942;53.196;6.592;2024-03-23T05:28:34;12.73;;;3.37;;
30127;SDS011;16942;53.196;6.592;2024-03-23T05:31:00;19.53;;;3.27;;
30127;SDS011;16942;53.196;6.592;2024-03-23T05:33:26;12.73;;;2.80;;
30127;SDS011;16942;53.196;6.592;2024-03-23T05:36:01;9.03;;;2.87;;
30127;SDS011;16942;53.196;6.592;2024-03-23T05:38:28;12.50;;;2.90;;
30127;SDS011;16942;53.196;6.592;2024-03-23T05:40:55;12.97;;;3.70;;
30127;SDS011;16942;53.196;6.592;2024-03-23T05:43:21;13.53;;;2.40;;
30127;SDS011;16942;53.196;6.592;2024-03-23T05:45:54;13.40;;;2.70;;
30127;SDS011;16942;53.196;6.592;2024-03-23T05:48:20;10.23;;;2.63;;
30127;SDS011;16942;53.196;6.592;2024-03-23T05:50:46;11.20;;;2.77;;
30127;SDS011;16942;53.196;6.592;2024-03-23T05:53:12;12.33;;;2.97;;
30127;SDS011;16942;53.196;6.592;2024-03-23T05:55:38;11.70;;;2.40;;
30127;SDS011;16942;53.196;6.592;2024-03-23T05:58:04;18.03;;;3.00;;
30127;SDS011;16942;53.196;6.592;2024-03-23T06:00:30;14.47;;;2.80;;
30127;SDS011;16942;53.196;6.592;2024-03-23T06:02:56;13.60;;;2.63;;
30127;SDS011;16942;53.196;6.592;2024-03-23T06:05:22;12.17;;;2.53;;
30127;SDS011;16942;53.196;6.592;2024-03-23T06:07:49;16.43;;;2.40;;
30127;SDS011;16942;53.196;6.592;2024-03-23T06:10:15;10.07;;;2.10;;
30127;SDS011;16942;53.196;6.592;2024-03-23T06:12:41;14.67;;;2.67;;
30127;SDS011;16942;53.196;6.592;2024-03-23T06:15:07;7.67;;;1.50;;
30127;SDS011;16942;53.196;6.592;2024-03-23T06:17:35;9.10;;;2.97;;
30127;SDS011;16942;53.196;6.592;2024-03-23T06:20:02;6.93;;;1.53;;
30127;SDS011;16942;53.196;6.592;2024-03-23T06:22:28;4.37;;;1.50;;
30127;SDS011;16942;53.196;6.592;2024-03-23T06:24:54;6.03;;;1.80;;
30127;SDS011;16942;53.196;6.592;2024-03-23T06:27:20;7.30;;;1.30;;
30127;SDS011;16942;53.196;6.592;2024-03-23T06:29:46;7.53;;;2.17;;
30127;SDS011;16942;53.196;6.592;2024-03-23T06:32:12;13.63;;;2.10;;
30127;SDS011;16942;53.196;6.592;2024-03-23T06:34:38;5.90;;;1.00;;
30127;SDS011;16942;53.196;6.592;2024-03-23T06:37:06;9.83;;;1.57;;
30127;SDS011;16942;53.196;6.592;2024-03-23T06:39:34;7.57;;;1.77;;
30127;SDS011;16942;53.196;6.592;2024-03-23T06:42:00;3.30;;;1.20;;
30127;SDS011;16942;53.196;6.592;2024-03-23T06:44:26;6.60;;;1.60;;
30127;SDS011;16942;53.196;6.592;2024-03-23T06:46:52;4.83;;;1.17;;
30127;SDS011;16942;53.196;6.592;2024-03-23T06:49:18;8.50;;;2.00;;
30127;SDS011;16942;53.196;6.592;2024-03-23T06:51:44;9.83;;;1.37;;
30127;SDS011;16942;53.196;6.592;2024-03-23T06:54:11;8.93;;;1.63;;
30127;SDS011;16942;53.196;6.592;2024-03-23T06:56:37;7.53;;;1.60;;
30127;SDS011;16942;53.196;6.592;2024-03-23T06:59:03;7.83;;;1.70;;
30127;SDS011;16942;53.196;6.592;2024-03-23T07:01:29;8.23;;;1.90;;
30127;SDS011;16942;53.196;6.592;2024-03-23T07:03:55;16.97;;;1.60;;
30127;SDS011;16942;53.196;6.592;2024-03-23T07:06:21;8.00;;;2.30;;
30127;SDS011;16942;53.196;6.592;2024-03-23T07:08:47;8.93;;;2.23;;
30127;SDS011;16942;53.196;6.592;2024-03-23T07:11:19;8.17;;;2.23;;
30127;SDS011;16942;53.196;6.592;2024-03-23T07:13:45;4.67;;;1.40;;
30127;SDS011;16942;53.196;6.592;2024-03-23T07:16:13;9.77;;;2.07;;
30127;SDS011;16942;53.196;6.592;2024-03-23T07:18:39;9.10;;;2.50;;
30127;SDS011;16942;53.196;6.592;2024-03-23T07:21:05;12.63;;;2.10;;
30127;SDS011;16942;53.196;6.592;2024-03-23T07:23:32;8.83;;;1.60;;
30127;SDS011;16942;53.196;6.592;2024-03-23T07:26:02;9.30;;;2.00;;
30127;SDS011;16942;53.196;6.592;2024-03-23T07:28:32;8.87;;;1.60;;
30127;SDS011;16942;53.196;6.592;2024-03-23T07:31:12;4.67;;;1.40;;
30127;SDS011;16942;53.196;6.592;2024-03-23T07:33:43;6.00;;;1.80;;
30127;SDS011;16942;53.196;6.592;2024-03-23T07:36:09;7.20;;;1.90;;
30127;SDS011;16942;53.196;6.592;2024-03-23T07:38:35;6.47;;;1.40;;
30127;SDS011;16942;53.196;6.592;2024-03-23T07:41:08;5.20;;;1.40;;
30127;SDS011;16942;53.196;6.592;2024-03-23T07:43:35;4.87;;;1.43;;
30127;SDS011;16942;53.196;6.592;2024-03-23T07:46:01;5.43;;;1.50;;
30127;SDS011;16942;53.196;6.592;2024-03-23T07:48:29;6.00;;;1.50;;
30127;SDS011;16942;53.196;6.592;2024-03-23T07:50:59;4.10;;;1.20;;
30127;SDS011;16942;53.196;6.592;2024-03-23T07:53:25;4.87;;;1.17;;
30127;SDS011;16942;53.196;6.592;2024-03-23T07:56:01;5.77;;;1.13;;
30127;SDS011;16942;53.196;6.592;2024-03-23T07:58:27;5.30;;;1.10;;
30127;SDS011;16942;53.196;6.592;2024-03-23T08:00:54;7.53;;;1.30;;
30127;SDS011;16942;53.196;6.592;2024-03-23T08:03:20;9.10;;;1.57;;
30127;SDS011;16942;53.196;6.592;2024-03-23T08:05:46;5.07;;;1.50;;
30127;SDS011;16942;53.196;6.592;2024-03-23T08:08:12;6.03;;;1.60;;
30127;SDS011;16942;53.196;6.592;2024-03-23T08:10:48;5.63;;;1.30;;
30127;SDS011;16942;53.196;6.592;2024-03-23T08:13:14;4.57;;;1.30;;
30127;SDS011;16942;53.196;6.592;2024-03-23T08:15:40;10.07;;;1.80;;
30127;SDS011;16942;53.196;6.592;2024-03-23T08:18:06;9.00;;;1.40;;
30127;SDS011;16942;53.196;6.592;2024-03-23T08:20:33;8.60;;;1.90;;
30127;SDS011;16942;53.196;6.592;2024-03-23T08:22:59;12.17;;;1.90;;
30127;SDS011;16942;53.196;6.592;2024-03-23T08:25:25;5.07;;;1.63;;
30127;SDS011;16942;53.196;6.592;2024-03-23T08:27:51;5.30;;;1.23;;
30127;SDS011;16942;53.196;6.592;2024-03-23T08:30:17;4.23;;;1.17;;
30127;SDS011;16942;53.196;6.592;2024-03-23T08:32:43;3.73;;;1.40;;
30127;SDS011;16942;53.196;6.592;2024-03-23T08:35:11;6.50;;;1.43;;
30127;SDS011;16942;53.196;6.592;2024-03-23T08:37:37;9.43;;;1.70;;
30127;SDS011;16942;53.196;6.592;2024-03-23T08:40:03;7.17;;;2.10;;
30127;SDS011;16942;53.196;6.592;2024-03-23T08:42:29;8.47;;;2.27;;
30127;SDS011;16942;53.196;6.592;2024-03-23T08:44:55;11.30;;;2.80;;
30127;SDS011;16942;53.196;6.592;2024-03-23T08:47:21;9.57;;;2.47;;
30127;SDS011;16942;53.196;6.592;2024-03-23T08:49:47;9.90;;;2.17;;
30127;SDS011;16942;53.196;6.592;2024-03-23T08:52:13;12.60;;;2.67;;
30127;SDS011;16942;53.196;6.592;2024-03-23T08:54:39;7.90;;;2.00;;
30127;SDS011;16942;53.196;6.592;2024-03-23T08:57:05;9.87;;;2.43;;
30127;SDS011;16942;53.196;6.592;2024-03-23T08:59:32;8.87;;;2.17;;
30127;SDS011;16942;53.196;6.592;2024-03-23T09:01:58;8.00;;;2.40;;
30127;SDS011;16942;53.196;6.592;2024-03-23T09:04:24;17.50;;;3.60;;
30127;SDS011;16942;53.196;6.592;2024-03-23T09:06:50;8.07;;;2.40;;
30127;SDS011;16942;53.196;6.592;2024-03-23T09:09:16;7.47;;;2.17;;
30127;SDS011;16942;53.196;6.592;2024-03-23T09:11:42;9.23;;;2.43;;
30127;SDS011;16942;53.196;6.592;2024-03-23T09:14:08;15.53;;;2.60;;
30127;SDS011;16942;53.196;6.592;2024-03-23T09:16:34;13.27;;;3.07;;
30127;SDS011;16942;53.196;6.592;2024-03-23T09:19:00;7.20;;;1.97;;
30127;SDS011;16942;53.196;6.592;2024-03-23T09:21:26;9.17;;;2.20;;
30127;SDS011;16942;53.196;6.592;2024-03-23T09:23:52;10.70;;;2.03;;
30127;SDS011;16942;53.196;6.592;2024-03-23T09:26:18;9.57;;;2.00;;
30127;SDS011;16942;53.196;6.592;2024-03-23T09:28:44;15.23;;;2.67;;
30127;SDS011;16942;53.196;6.592;2024-03-23T09:31:10;8.23;;;1.80;;
30127;SDS011;16942;53.196;6.592;2024-03-23T09:33:39;12.77;;;2.30;;
30127;SDS011;16942;53.196;6.592;2024-03-23T09:36:05;9.60;;;2.77;;
30127;SDS011;16942;53.196;6.592;2024-03-23T09:38:31;17.17;;;2.60;;
30127;SDS011;16942;53.196;6.592;2024-03-23T09:40:58;10.43;;;2.00;;
30127;SDS011;16942;53.196;6.592;2024-03-23T09:43:27;7.63;;;1.53;;
30127;SDS011;16942;53.196;6.592;2024-03-23T09:45:54;14.03;;;2.07;;
30127;SDS011;16942;53.196;6.592;2024-03-23T09:48:20;11.40;;;1.70;;
30127;SDS011;16942;53.196;6.592;2024-03-23T09:50:46;8.53;;;1.43;;
30127;SDS011;16942;53.196;6.592;2024-03-23T09:53:13;5.23;;;1.90;;
30127;SDS011;16942;53.196;6.592;2024-03-23T09:55:43;11.70;;;1.50;;
30127;SDS011;16942;53.196;6.592;2024-03-23T09:58:12;7.47;;;1.70;;
30127;SDS011;16942;53.196;6.592;2024-03-23T10:00:38;7.27;;;1.67;;
30127;SDS011;16942;53.196;6.592;2024-03-23T10:03:05;10.37;;;1.77;;
30127;SDS011;16942;53.196;6.592;2024-03-23T10:05:32;3.67;;;0.90;;
30127;SDS011;16942;53.196;6.592;2024-03-23T10:10:39;6.67;;;1.03;;
30127;SDS011;16942;53.196;6.592;2024-03-23T10:13:05;5.70;;;1.10;;
30127;SDS011;16942;53.196;6.592;2024-03-23T10:15:33;9.83;;;1.80;;
30127;SDS011;16942;53.196;6.592;2024-03-23T10:18:01;4.43;;;1.20;;
30127;SDS011;16942;53.196;6.592;2024-03-23T10:20:42;6.13;;;1.67;;
30127;SDS011;16942;53.196;6.592;2024-03-23T10:23:18;10.77;;;1.87;;
30127;SDS011;16942;53.196;6.592;2024-03-23T10:25:44;9.57;;;2.03;;
30127;SDS011;16942;53.196;6.592;2024-03-23T10:28:13;13.70;;;1.90;;
30127;SDS011;16942;53.196;6.592;2024-03-23T10:30:39;8.47;;;2.17;;
30127;SDS011;16942;53.196;6.592;2024-03-23T10:33:09;10.93;;;1.50;;
30127;SDS011;16942;53.196;6.592;2024-03-23T10:35:36;9.00;;;2.03;;
30127;SDS011;16942;53.196;6.592;2024-03-23T10:38:04;16.07;;;2.17;;
30127;SDS011;16942;53.196;6.592;2024-03-23T10:40:30;13.23;;;1.83;;
30127;SDS011;16942;53.196;6.592;2024-03-23T10:42:57;5.33;;;1.50;;
30127;SDS011;16942;53.196;6.592;2024-03-23T10:45:24;6.87;;;1.20;;
30127;SDS011;16942;53.196;6.592;2024-03-23T10:47:51;7.47;;;1.47;;
30127;SDS011;16942;53.196;6.592;2024-03-23T10:50:18;6.43;;;1.37;;
30127;SDS011;16942;53.196;6.592;2024-03-23T10:52:46;10.93;;;1.30;;
30127;SDS011;16942;53.196;6.592;2024-03-23T10:55:12;6.80;;;1.20;;
30127;SDS011;16942;53.196;6.592;2024-03-23T10:57:44;5.73;;;1.30;;
30127;SDS011;16942;53.196;6.592;2024-03-23T11:00:11;10.87;;;2.00;;
30127;SDS011;16942;53.196;6.592;2024-03-23T11:02:37;6.77;;;1.13;;
30127;SDS011;16942;53.196;6.592;2024-03-23T11:07:51;8.13;;;1.43;;
30127;SDS011;16942;53.196;6.592;2024-03-23T11:10:27;10.87;;;1.70;;
30127;SDS011;16942;53.196;6.592;2024-03-23T11:12:54;6.53;;;1.40;;
30127;SDS011;16942;53.196;6.592;2024-03-23T11:15:21;11.57;;;1.37;;
30127;SDS011;16942;53.196;6.592;2024-03-23T11:18:01;8.00;;;1.80;;
30127;SDS011;16942;53.196;6.592;2024-03-23T11:20:32;8.90;;;1.70;;
30127;SDS011;16942;53.196;6.592;2024-03-23T11:22:58;10.83;;;1.73;;
30127;SDS011;16942;53.196;6.592;2024-03-23T11:25:25;8.17;;;1.60;;
30127;SDS011;16942;53.196;6.592;2024-03-23T11:27:55;9.00;;;1.97;;
30127;SDS011;16942;53.196;6.592;2024-03-23T11:30:24;5.47;;;1.80;;
30127;SDS011;16942;53.196;6.592;2024-03-23T11:32:51;6.67;;;2.50;;
30127;SDS011;16942;53.196;6.592;2024-03-23T11:35:28;11.73;;;1.50;;
30127;SDS011;16942;53.196;6.592;2024-03-23T11:38:03;9.97;;;2.00;;
30127;SDS011;16942;53.196;6.592;2024-03-23T11:40:29;8.80;;;2.33;;
30127;SDS011;16942;53.196;6.592;2024-03-23T11:42:56;9.13;;;3.40;;
30127;SDS011;16942;53.196;6.592;2024-03-23T11:45:22;5.67;;;1.50;;
30127;SDS011;16942;53.196;6.592;2024-03-23T11:47:48;8.47;;;1.90;;
30127;SDS011;16942;53.196;6.592;2024-03-23T11:50:20;6.87;;;1.60;;
30127;SDS011;16942;53.196;6.592;2024-03-23T11:52:46;11.10;;;2.17;;
30127;SDS011;16942;53.196;6.592;2024-03-23T11:55:12;9.77;;;1.20;;
30127;SDS011;16942;53.196;6.592;2024-03-23T11:57:38;10.17;;;2.57;;
30127;SDS011;16942;53.196;6.592;2024-03-23T12:00:19;15.07;;;2.20;;
30127;SDS011;16942;53.196;6.592;2024-03-23T12:02:45;8.87;;;2.20;;
30127;SDS011;16942;53.196;6.592;2024-03-23T12:05:15;8.20;;;1.93;;
30127;SDS011;16942;53.196;6.592;2024-03-23T12:07:41;9.83;;;2.43;;
30127;SDS011;16942;53.196;6.592;2024-03-23T12:10:07;5.00;;;2.13;;
30127;SDS011;16942;53.196;6.592;2024-03-23T12:12:33;4.70;;;1.20;;
30127;SDS011;16942;53.196;6.592;2024-03-23T12:17:30;7.00;;;1.70;;
30127;SDS011;16942;53.196;6.592;2024-03-23T12:19:56;4.90;;;1.40;;
30127;SDS011;16942;53.196;6.592;2024-03-23T12:22:22;6.27;;;1.40;;
30127;SDS011;16942;53.196;6.592;2024-03-23T12:24:48;5.80;;;1.23;;
30127;SDS011;16942;53.196;6.592;2024-03-23T12:27:14;3.80;;;1.37;;
30127;SDS011;16942;53.196;6.592;2024-03-23T12:29:41;6.33;;;1.20;;
30127;SDS011;16942;53.196;6.592;2024-03-23T12:32:08;5.00;;;1.10;;
30127;SDS011;16942;53.196;6.592;2024-03-23T12:34:34;7.30;;;1.90;;
30127;SDS011;16942;53.196;6.592;2024-03-23T12:37:00;2.53;;;1.00;;
30127;SDS011;16942;53.196;6.592;2024-03-23T12:39:26;6.07;;;1.23;;
30127;SDS011;16942;53.196;6.592;2024-03-23T12:41:53;5.70;;;1.33;;
30127;SDS011;16942;53.196;6.592;2024-03-23T12:44:19;9.97;;;1.70;;
30127;SDS011;16942;53.196;6.592;2024-03-23T12:46:46;6.43;;;1.57;;
30127;SDS011;16942;53.196;6.592;2024-03-23T12:49:12;5.30;;;1.30;;
30127;SDS011;16942;53.196;6.592;2024-03-23T12:51:38;8.20;;;1.23;;
30127;SDS011;16942;53.196;6.592;2024-03-23T12:54:04;7.10;;;1.80;;
30127;SDS011;16942;53.196;6.592;2024-03-23T12:56:30;5.10;;;1.50;;
30127;SDS011;16942;53.196;6.592;2024-03-23T12:58:56;5.87;;;1.20;;
30127;SDS011;16942;53.196;6.592;2024-03-23T13:01:23;9.07;;;1.40;;
30127;SDS011;16942;53.196;6.592;2024-03-23T13:03:52;5.80;;;1.20;;
30127;SDS011;16942;53.196;6.592;2024-03-23T13:06:18;9.40;;;1.07;;
30127;SDS011;16942;53.196;6.592;2024-03-23T13:08:47;4.43;;;1.00;;
30127;SDS011;16942;53.196;6.592;2024-03-23T13:11:15;4.63;;;1.00;;
30127;SDS011;16942;53.196;6.592;2024-03-23T13:13:41;8.57;;;1.37;;
30127;SDS011;16942;53.196;6.592;2024-03-23T13:16:07;4.70;;;1.40;;
30127;SDS011;16942;53.196;6.592;2024-03-23T13:18:33;5.47;;;1.43;;
30127;SDS011;16942;53.196;6.592;2024-03-23T13:20:59;6.10;;;1.30;;
30127;SDS011;16942;53.196;6.592;2024-03-23T13:23:25;10.40;;;1.60;;
30127;SDS011;16942;53.196;6.592;2024-03-23T13:25:55;6.87;;;2.10;;
30127;SDS011;16942;53.196;6.592;2024-03-23T13:28:22;5.40;;;1.50;;
30127;SDS011;16942;53.196;6.592;2024-03-23T13:33:17;9.23;;;1.87;;
30127;SDS011;16942;53.196;6.592;2024-03-23T13:35:52;8.23;;;1.30;;
30127;SDS011;16942;53.196;6.592;2024-03-23T13:38:19;5.20;;;1.60;;
30127;SDS011;16942;53.196;6.592;2024-03-23T13:40:52;7.07;;;1.53;;
30127;SDS011;16942;53.196;6.592;2024-03-23T13:43:18;6.03;;;1.20;;
30127;SDS011;16942;53.196;6.592;2024-03-23T13:45:44;4.07;;;1.87;;
30127;SDS011;16942;53.196;6.592;2024-03-23T13:48:10;7.40;;;1.97;;
30127;SDS011;16942;53.196;6.592;2024-03-23T13:50:36;6.73;;;1.20;;
30127;SDS011;16942;53.196;6.592;2024-03-23T13:53:02;4.77;;;0.90;;
30127;SDS011;16942;53.196;6.592;2024-03-23T13:55:28;5.80;;;1.13;;
30127;SDS011;16942;53.196;6.592;2024-03-23T13:57:54;3.23;;;0.87;;
30127;SDS011;16942;53.196;6.592;2024-03-23T14:00:20;4.13;;;1.20;;
30127;SDS011;16942;53.196;6.592;2024-03-23T14:02:46;5.07;;;1.10;;
30127;SDS011;16942;53.196;6.592;2024-03-23T14:05:12;7.87;;;1.50;;
30127;SDS011;16942;53.196;6.592;2024-03-23T14:07:38;6.53;;;1.77;;
30127;SDS011;16942;53.196;6.592;2024-03-23T14:10:04;7.33;;;1.37;;
30127;SDS011;16942;53.196;6.592;2024-03-23T14:12:31;7.63;;;1.33;;
30127;SDS011;16942;53.196;6.592;2024-03-23T14:14:57;7.70;;;1.47;;
30127;SDS011;16942;53.196;6.592;2024-03-23T14:17:24;3.73;;;1.20;;
30127;SDS011;16942;53.196;6.592;2024-03-23T14:19:51;5.53;;;1.30;;
30127;SDS011;16942;53.196;6.592;2024-03-23T14:22:17;3.33;;;1.27;;
30127;SDS011;16942;53.196;6.592;2024-03-23T14:24:44;3.83;;;1.10;;
30127;SDS011;16942;53.196;6.592;2024-03-23T14:27:10;3.23;;;1.13;;
30127;SDS011;16942;53.196;6.592;2024-03-23T14:29:36;8.03;;;1.30;;
30127;SDS011;16942;53.196;6.592;2024-03-23T14:32:02;5.63;;;1.57;;
30127;SDS011;16942;53.196;6.592;2024-03-23T14:34:28;2.67;;;1.23;;
30127;SDS011;16942;53.196;6.592;2024-03-23T14:36:54;5.50;;;1.20;;
30127;SDS011;16942;53.196;6.592;2024-03-23T14:39:23;5.03;;;1.30;;
30127;SDS011;16942;53.196;6.592;2024-03-23T14:41:50;5.80;;;1.60;;
30127;SDS011;16942;53.196;6.592;2024-03-23T14:44:16;6.53;;;1.90;;
30127;SDS011;16942;53.196;6.592;2024-03-23T14:46:42;6.10;;;1.67;;
30127;SDS011;16942;53.196;6.592;2024-03-23T14:49:08;4.80;;;1.70;;
30127;SDS011;16942;53.196;6.592;2024-03-23T14:51:35;11.70;;;2.83;;
30127;SDS011;16942;53.196;6.592;2024-03-23T14:54:01;11.47;;;1.93;;
30127;SDS011;16942;53.196;6.592;2024-03-23T14:56:27;8.83;;;2.00;;
30127;SDS011;16942;53.196;6.592;2024-03-23T14:58:53;13.40;;;2.43;;
30127;SDS011;16942;53.196;6.592;2024-03-23T15:01:21;9.63;;;2.40;;
30127;SDS011;16942;53.196;6.592;2024-03-23T15:03:47;7.57;;;2.33;;
30127;SDS011;16942;53.196;6.592;2024-03-23T15:06:13;7.83;;;2.87;;
30127;SDS011;16942;53.196;6.592;2024-03-23T15:08:39;11.70;;;2.00;;
30127;SDS011;16942;53.196;6.592;2024-03-23T15:11:05;8.20;;;2.03;;
30127;SDS011;16942;53.196;6.592;2024-03-23T15:13:32;3.67;;;1.50;;
30127;SDS011;16942;53.196;6.592;2024-03-23T15:15:58;5.43;;;1.97;;
30127;SDS011;16942;53.196;6.592;2024-03-23T15:18:24;6.07;;;2.30;;
30127;SDS011;16942;53.196;6.592;2024-03-23T15:20:58;5.60;;;1.03;;
30127;SDS011;16942;53.196;6.592;2024-03-23T15:23:27;7.33;;;1.63;;
30127;SDS011;16942;53.196;6.592;2024-03-23T15:25:54;6.67;;;1.23;;
30127;SDS011;16942;53.196;6.592;2024-03-23T15:28:20;8.70;;;1.67;;
30127;SDS011;16942;53.196;6.592;2024-03-23T15:30:46;6.97;;;1.57;;
30127;SDS011;16942;53.196;6.592;2024-03-23T15:33:12;10.47;;;3.07;;
30127;SDS011;16942;53.196;6.592;2024-03-23T15:35:38;7.40;;;2.10;;
30127;SDS011;16942;53.196;6.592;2024-03-23T15:38:04;6.03;;;1.67;;
30127;SDS011;16942;53.196;6.592;2024-03-23T15:40:30;6.23;;;1.50;;
30127;SDS011;16942;53.196;6.592;2024-03-23T15:42:56;10.87;;;1.97;;